TimePST,TemperatureF,Dew PointF,Humidity,Sea Level PressureIn,VisibilityMPH,Wind Direction,Wind SpeedMPH,Gust SpeedMPH,PrecipitationIn,Events,Conditions,WindDirDegrees,DateUTC
12:53 AM,46.9,39.9,77,30.18,10.0,SSE,11.5,-,N/A,,Overcast,150,2013-01-08 08:53:00
1:53 AM,46.9,41.0,80,30.18,10.0,SE,5.8,-,N/A,,Overcast,140,2013-01-08 09:53:00
2:53 AM,46.9,39.9,77,30.17,10.0,Calm,Calm,-,N/A,,Mostly Cloudy,0,2013-01-08 10:53:00
3:45 AM,46.4,39.2,76,30.14,10.0,ESE,4.6,-,N/A,,Overcast,110,2013-01-08 11:45:00
3:53 AM,46.0,41.0,83,30.15,10.0,ESE,4.6,-,N/A,,Overcast,110,2013-01-08 11:53:00
4:51 AM,46.4,39.2,76,30.12,10.0,Calm,Calm,-,0.00,Rain,Light Rain,0,2013-01-08 12:51:00
4:53 AM,46.0,39.9,79,30.14,10.0,SE,3.5,-,0.00,Rain,Light Rain,140,2013-01-08 12:53:00
5:53 AM,44.1,39.0,82,30.13,6.0,Calm,Calm,-,0.03,Rain,Light Rain,0,2013-01-08 13:53:00
6:53 AM,43.0,39.9,89,30.08,8.0,Calm,Calm,-,0.03,Rain,Light Rain,0,2013-01-08 14:53:00
7:53 AM,43.0,39.9,89,30.06,8.0,East,4.6,-,0.01,Rain,Light Rain,100,2013-01-08 15:53:00
8:43 AM,42.8,41.0,93,30.03,2.5,Calm,Calm,-,0.03,Rain,Light Rain,0,2013-01-08 16:43:00
8:53 AM,42.1,39.9,92,30.05,4.0,Calm,Calm,-,0.04,Rain,Light Rain,0,2013-01-08 16:53:00
9:37 AM,42.8,39.2,87,30.02,6.0,Calm,Calm,-,0.02,Rain,Light Rain,0,2013-01-08 17:37:00
9:53 AM,43.0,39.9,89,30.03,4.0,Calm,Calm,-,0.02,Rain,Light Rain,0,2013-01-08 17:53:00
10:02 AM,42.8,41.0,93,30.00,2.5,Calm,Calm,-,0.00,Rain,Light Rain,0,2013-01-08 18:02:00
10:29 AM,42.8,41.0,93,29.98,2.5,Calm,Calm,-,0.00,Rain,Light Rain,0,2013-01-08 18:29:00
10:45 AM,42.8,41.0,93,29.98,2.0,SSE,3.5,-,0.01,Rain,Light Rain,150,2013-01-08 18:45:00
10:53 AM,43.0,42.1,97,29.99,1.2,SE,4.6,-,0.01,Rain,Light Rain,130,2013-01-08 18:53:00
11:16 AM,42.8,42.8,100,29.95,1.5,SE,4.6,-,0.01,Rain,Light Rain,130,2013-01-08 19:16:00
11:53 AM,45.0,43.0,93,29.95,2.0,SSE,6.9,-,0.02,Rain,Light Rain,160,2013-01-08 19:53:00
12:53 PM,46.9,45.0,93,29.93,2.0,SE,5.8,-,0.03,Rain,Light Rain,130,2013-01-08 20:53:00
1:00 PM,46.4,44.6,93,29.90,2.0,ESE,6.9,-,0.00,Rain,Light Rain,110,2013-01-08 21:00:00
1:53 PM,48.0,46.9,96,29.88,2.0,SE,5.8,-,0.06,Rain,Light Rain,130,2013-01-08 21:53:00
2:49 PM,51.8,48.2,88,29.86,4.0,SE,10.4,-,0.05,Rain,Light Rain,140,2013-01-08 22:49:00
2:53 PM,51.1,48.0,89,29.87,4.0,SSE,8.1,-,0.05,Rain,Light Rain,150,2013-01-08 22:53:00
3:53 PM,52.0,48.0,86,29.86,4.0,South,9.2,19.6,0.00,,Overcast,170,2013-01-08 23:53:00
4:53 PM,53.1,46.9,80,29.83,10.0,South,15.0,26.5,N/A,,Overcast,170,2013-01-09 00:53:00
5:53 PM,54.0,46.9,77,29.81,10.0,South,15.0,31.1,N/A,,Overcast,170,2013-01-09 01:53:00
6:53 PM,55.0,46.0,72,29.80,10.0,SSE,13.8,21.9,N/A,,Overcast,160,2013-01-09 02:53:00
7:53 PM,55.0,45.0,69,29.78,10.0,SSE,17.3,35.7,N/A,,Overcast,160,2013-01-09 03:53:00
8:53 PM,53.6,46.4,77,29.75,10.0,SSE,17.3,23.0,N/A,Rain,Light Rain,160,2013-01-09 04:53:00
9:53 PM,53.1,46.0,77,29.77,10.0,South,10.4,21.9,0.03,Rain,Light Rain,170,2013-01-09 05:53:00
10:53 PM,52.0,46.9,83,29.76,8.0,South,8.1,-,0.07,Rain,Light Rain,180,2013-01-09 06:53:00
11:53 PM,51.1,48.0,89,29.75,8.0,South,6.9,-,0.05,Rain,Light Rain,180,2013-01-09 07:53:00